Time,TemperatureF,DewpointF,PressureIn,WindDirection,WindDirectionDegrees,WindSpeedMPH,WindSpeedGustMPH,Humidity,HourlyPrecipIn,Conditions,Clouds,dailyrainin,SoftwareType,DateUTC
2013-02-06 00:01:00,29.0,22.0,-100.00,SE,142,0.0,2.0,73,-99.99,,,-99.99,,2013-02-06 07:01:00,
2013-02-06 00:11:00,29.0,21.0,-100.00,East,80,1.0,2.0,73,-99.99,,,-99.99,,2013-02-06 07:11:00,
2013-02-06 00:21:00,28.0,21.0,-100.00,East,88,3.0,4.0,74,-99.99,,,-99.99,,2013-02-06 07:21:00,
2013-02-06 00:32:00,28.0,21.0,-100.00,East,85,0.0,3.0,74,-99.99,,,-99.99,,2013-02-06 07:32:00,
2013-02-06 00:41:00,28.0,21.0,-100.00,South,188,3.0,3.0,75,-99.99,,,-99.99,,2013-02-06 07:41:00,
2013-02-06 00:51:00,28.0,21.0,-100.00,ESE,122,0.0,2.0,74,-99.99,,,-99.99,,2013-02-06 07:51:00,
2013-02-06 01:01:00,27.0,20.0,-100.00,ESE,122,0.0,0.0,75,-99.99,,,-99.99,,2013-02-06 08:01:00,
2013-02-06 01:11:00,27.0,20.0,-100.00,ESE,122,0.0,3.0,75,-99.99,,,-99.99,,2013-02-06 08:11:00,
2013-02-06 01:21:00,27.0,21.0,-100.00,SE,125,0.0,2.0,75,-99.99,,,-99.99,,2013-02-06 08:21:00,
2013-02-06 01:31:00,27.0,20.0,-100.00,North,0,0.0,4.0,75,-99.99,,,-99.99,,2013-02-06 08:31:00,
2013-02-06 01:41:00,26.0,20.0,-100.00,West,274,1.0,2.0,76,-99.99,,,-99.99,,2013-02-06 08:41:00,
2013-02-06 01:53:00,26.0,20.0,-100.00,West,274,1.0,2.0,76,-99.99,,,-99.99,,2013-02-06 08:53:00,
2013-02-06 02:01:00,26.0,19.0,-100.00,East,93,0.0,4.0,76,-99.99,,,-99.99,,2013-02-06 09:01:00,
2013-02-06 02:11:00,24.0,18.0,-100.00,East,93,2.0,2.0,77,-99.99,,,-99.99,,2013-02-06 09:11:00,
2013-02-06 02:21:00,24.0,18.0,-100.00,East,91,0.0,3.0,77,-99.99,,,-99.99,,2013-02-06 09:21:00,
2013-02-06 02:31:00,25.0,19.0,-100.00,North,0,0.0,0.0,77,-99.99,,,-99.99,,2013-02-06 09:31:00,
2013-02-06 02:41:00,24.0,19.0,-100.00,West,266,3.0,4.0,78,-99.99,,,-99.99,,2013-02-06 09:41:00,
2013-02-06 02:51:00,24.0,18.0,-100.00,West,271,0.0,4.0,78,-99.99,,,-99.99,,2013-02-06 09:51:00,
2013-02-06 03:01:00,23.0,18.0,-100.00,NNW,340,1.0,4.0,79,-99.99,,,-99.99,,2013-02-06 10:01:00,
2013-02-06 03:11:00,28.0,21.0,-100.00,WSW,246,6.0,8.0,73,-99.99,,,-99.99,,2013-02-06 10:11:00,
2013-02-06 03:21:00,28.0,21.0,-100.00,WSW,246,6.0,8.0,73,-99.99,,,-99.99,,2013-02-06 10:21:00,
2013-02-06 03:31:00,30.0,18.0,-100.00,West,275,3.0,6.0,59,-99.99,,,-99.99,,2013-02-06 10:31:00,
2013-02-06 03:41:00,28.0,18.0,-100.00,NW,304,3.0,5.0,63,-99.99,,,-99.99,,2013-02-06 10:41:00,
2013-02-06 03:51:00,26.0,16.0,-100.00,East,81,4.0,5.0,65,-99.99,,,-99.99,,2013-02-06 10:51:00,
2013-02-06 04:01:00,23.0,16.0,-100.00,NNE,31,0.0,4.0,73,-99.99,,,-99.99,,2013-02-06 11:01:00,
2013-02-06 04:11:00,24.0,18.0,-100.00,North,0,0.0,3.0,75,-99.99,,,-99.99,,2013-02-06 11:11:00,
2013-02-06 04:22:00,25.0,18.0,-100.00,ESE,106,1.0,1.0,73,-99.99,,,-99.99,,2013-02-06 11:22:00,
2013-02-06 04:32:00,26.0,18.0,-100.00,NE,56,0.0,2.0,71,-99.99,,,-99.99,,2013-02-06 11:32:00,
2013-02-06 04:42:00,26.0,18.0,-100.00,ESE,109,0.0,2.0,70,-99.99,,,-99.99,,2013-02-06 11:42:00,
2013-02-06 04:52:00,26.0,18.0,-100.00,ESE,111,3.0,3.0,71,-99.99,,,-99.99,,2013-02-06 11:52:00,
2013-02-06 05:01:00,25.0,17.0,-100.00,SE,128,1.0,4.0,71,-99.99,,,-99.99,,2013-02-06 12:01:00,
2013-02-06 05:12:00,25.0,17.0,-100.00,SE,132,1.0,3.0,72,-99.99,,,-99.99,,2013-02-06 12:12:00,
2013-02-06 05:22:00,25.0,18.0,-100.00,SE,142,0.0,3.0,73,-99.99,,,-99.99,,2013-02-06 12:22:00,
2013-02-06 05:32:00,24.0,17.0,-100.00,North,0,0.0,1.0,73,-99.99,,,-99.99,,2013-02-06 12:32:00,
2013-02-06 05:42:00,25.0,18.0,-100.00,SSW,201,1.0,2.0,72,-99.99,,,-99.99,,2013-02-06 12:42:00,
2013-02-06 05:52:00,24.0,17.0,-100.00,East,84,1.0,3.0,74,-99.99,,,-99.99,,2013-02-06 12:52:00,
2013-02-06 06:01:00,25.0,18.0,-100.00,East,98,3.0,5.0,74,-99.99,,,-99.99,,2013-02-06 13:01:00,
2013-02-06 06:11:00,27.0,19.0,-100.00,NW,304,2.0,5.0,70,-99.99,,,-99.99,,2013-02-06 13:11:00,
2013-02-06 06:21:00,29.0,18.0,-100.00,WNW,298,6.0,9.0,63,-99.99,,,-99.99,,2013-02-06 13:21:00,
2013-02-06 06:31:00,33.0,17.0,-100.00,WNW,294,11.0,14.0,51,-99.99,,,-99.99,,2013-02-06 13:31:00,
2013-02-06 06:42:00,34.0,17.0,-100.00,WNW,284,7.0,15.0,50,-99.99,,,-99.99,,2013-02-06 13:42:00,
2013-02-06 06:52:00,33.0,17.0,-100.00,WNW,289,4.0,9.0,50,-99.99,,,-99.99,,2013-02-06 13:52:00,
2013-02-06 07:01:00,33.0,17.0,-100.00,WSW,256,0.0,4.0,50,-99.99,,,-99.99,,2013-02-06 14:01:00,
2013-02-06 07:11:00,34.0,17.0,-100.00,SW,225,1.0,2.0,49,-99.99,,,-99.99,,2013-02-06 14:11:00,
2013-02-06 07:21:00,34.0,17.0,-100.00,West,276,4.0,7.0,48,-99.99,,,-99.99,,2013-02-06 14:21:00,
2013-02-06 07:31:00,33.0,18.0,-100.00,WNW,284,6.0,8.0,54,-99.99,,,-99.99,,2013-02-06 14:31:00,
2013-02-06 07:41:00,34.0,16.0,-100.00,WSW,245,3.0,8.0,48,-99.99,,,-99.99,,2013-02-06 14:41:00,
2013-02-06 07:52:00,34.0,17.0,-100.00,WNW,285,5.0,8.0,48,-99.99,,,-99.99,,2013-02-06 14:52:00,
2013-02-06 08:01:00,33.0,18.0,-100.00,West,279,5.0,9.0,51,-99.99,,,-99.99,,2013-02-06 15:01:00,
2013-02-06 08:11:00,33.0,18.0,-100.00,West,271,4.0,5.0,53,-99.99,,,-99.99,,2013-02-06 15:11:00,
2013-02-06 08:21:00,33.0,18.0,-100.00,West,276,4.0,4.0,54,-99.99,,,-99.99,,2013-02-06 15:21:00,
2013-02-06 08:31:00,33.0,18.0,-100.00,West,276,4.0,4.0,54,-99.99,,,-99.99,,2013-02-06 15:31:00,
2013-02-06 08:41:00,32.0,19.0,-100.00,West,276,5.0,6.0,58,-99.99,,,-99.99,,2013-02-06 15:41:00,
2013-02-06 08:51:00,32.0,18.0,-100.00,West,268,5.0,6.0,56,-99.99,,,-99.99,,2013-02-06 15:51:00,
2013-02-06 09:01:00,32.0,19.0,-100.00,West,271,6.0,6.0,57,-99.99,,,-99.99,,2013-02-06 16:01:00,
2013-02-06 09:11:00,32.0,19.0,-100.00,West,277,6.0,6.0,58,-99.99,,,-99.99,,2013-02-06 16:11:00,
2013-02-06 09:21:00,32.0,19.0,-100.00,West,279,6.0,6.0,58,-99.99,,,-99.99,,2013-02-06 16:21:00,
2013-02-06 09:32:00,32.0,19.0,-100.00,West,263,5.0,7.0,57,-99.99,,,-99.99,,2013-02-06 16:32:00,
2013-02-06 09:41:00,32.0,19.0,-100.00,West,267,5.0,6.0,57,-99.99,,,-99.99,,2013-02-06 16:41:00,
2013-02-06 09:51:00,32.0,19.0,-100.00,WSW,258,4.0,6.0,56,-99.99,,,-99.99,,2013-02-06 16:51:00,
2013-02-06 10:01:00,34.0,19.0,-100.00,WSW,256,0.0,5.0,54,-99.99,,,-99.99,,2013-02-06 17:01:00,
2013-02-06 10:11:00,38.0,20.0,-100.00,WSW,256,1.0,2.0,47,-99.99,,,-99.99,,2013-02-06 17:11:00,
2013-02-06 10:21:00,37.0,17.0,-100.00,West,277,7.0,8.0,44,-99.99,,,-99.99,,2013-02-06 17:21:00,
2013-02-06 10:32:00,37.0,16.0,-100.00,WNW,290,7.0,9.0,42,-99.99,,,-99.99,,2013-02-06 17:32:00,
2013-02-06 10:41:00,37.0,17.0,-100.00,NW,304,8.0,10.0,43,-99.99,,,-99.99,,2013-02-06 17:41:00,
2013-02-06 10:52:00,36.0,17.0,-100.00,WNW,301,10.0,12.0,45,-99.99,,,-99.99,,2013-02-06 17:52:00,
2013-02-06 11:01:00,36.0,17.0,-100.00,WNW,296,10.0,14.0,45,-99.99,,,-99.99,,2013-02-06 18:01:00,
2013-02-06 11:11:00,36.0,19.0,-100.00,WNW,302,10.0,12.0,48,-99.99,,,-99.99,,2013-02-06 18:11:00,
2013-02-06 11:22:00,37.0,18.0,-100.00,NW,307,8.0,13.0,46,-99.99,,,-99.99,,2013-02-06 18:22:00,
2013-02-06 11:32:00,36.0,18.0,-100.00,NW,305,10.0,14.0,47,-99.99,,,-99.99,,2013-02-06 18:32:00,
2013-02-06 11:41:00,35.0,17.0,-100.00,NW,304,9.0,15.0,47,-99.99,,,-99.99,,2013-02-06 18:41:00,
2013-02-06 11:52:00,36.0,16.0,-100.00,WNW,289,9.0,13.0,42,-99.99,,,-99.99,,2013-02-06 18:52:00,
2013-02-06 12:01:00,37.0,13.0,-100.00,West,271,13.0,15.0,36,-99.99,,,-99.99,,2013-02-06 19:01:00,
2013-02-06 12:11:00,38.0,13.0,-100.00,West,260,12.0,17.0,35,-99.99,,,-99.99,,2013-02-06 19:11:00,
2013-02-06 12:21:00,38.0,14.0,-100.00,West,267,14.0,16.0,38,-99.99,,,-99.99,,2013-02-06 19:21:00,
2013-02-06 12:31:00,37.0,15.0,-100.00,West,267,13.0,17.0,39,-99.99,,,-99.99,,2013-02-06 19:31:00,
2013-02-06 12:41:00,37.0,14.0,-100.00,West,280,15.0,17.0,37,-99.99,,,-99.99,,2013-02-06 19:41:00,
2013-02-06 12:52:00,37.0,11.0,-100.00,West,274,17.0,21.0,34,-99.99,,,-99.99,,2013-02-06 19:52:00,
2013-02-06 13:01:00,37.0,13.0,-100.00,West,271,15.0,20.0,36,-99.99,,,-99.99,,2013-02-06 20:01:00,
2013-02-06 13:11:00,37.0,10.0,-100.00,WSW,254,18.0,22.0,32,-99.99,,,-99.99,,2013-02-06 20:11:00,
2013-02-06 13:21:00,37.0,10.0,-100.00,WSW,254,18.0,22.0,32,-99.99,,,-99.99,,2013-02-06 20:21:00,
2013-02-06 13:31:00,37.0,11.0,-100.00,WSW,258,19.0,23.0,33,-99.99,,,-99.99,,2013-02-06 20:31:00,
2013-02-06 13:41:00,37.0,12.0,-100.00,WSW,258,16.0,22.0,34,-99.99,,,-99.99,,2013-02-06 20:41:00,
2013-02-06 13:52:00,36.0,14.0,-100.00,WSW,254,19.0,24.0,39,-99.99,,,-99.99,,2013-02-06 20:52:00,
2013-02-06 14:01:00,37.0,14.0,-100.00,WSW,254,15.0,23.0,39,-99.99,,,-99.99,,2013-02-06 21:01:00,
2013-02-06 14:11:00,36.0,15.0,-100.00,West,265,13.0,19.0,42,-99.99,,,-99.99,,2013-02-06 21:11:00,
2013-02-06 14:21:00,36.0,15.0,-100.00,WSW,257,13.0,18.0,41,-99.99,,,-99.99,,2013-02-06 21:21:00,
2013-02-06 14:31:00,36.0,15.0,-100.00,WSW,257,13.0,18.0,41,-99.99,,,-99.99,,2013-02-06 21:31:00,
2013-02-06 14:41:00,37.0,15.0,-100.00,WSW,252,9.0,18.0,40,-99.99,,,-99.99,,2013-02-06 21:41:00,
2013-02-06 14:51:00,36.0,16.0,-100.00,West,264,12.0,15.0,43,-99.99,,,-99.99,,2013-02-06 21:51:00,
2013-02-06 15:01:00,36.0,16.0,-100.00,West,275,13.0,14.0,43,-99.99,,,-99.99,,2013-02-06 22:01:00,
2013-02-06 15:11:00,36.0,16.0,-100.00,West,275,13.0,14.0,43,-99.99,,,-99.99,,2013-02-06 22:11:00,
2013-02-06 15:21:00,37.0,16.0,-100.00,West,267,10.0,13.0,43,-99.99,,,-99.99,,2013-02-06 22:21:00,
2013-02-06 15:31:00,37.0,17.0,-100.00,West,265,13.0,14.0,44,-99.99,,,-99.99,,2013-02-06 22:31:00,
2013-02-06 15:41:00,36.0,18.0,-100.00,West,271,12.0,16.0,46,-99.99,,,-99.99,,2013-02-06 22:41:00,
2013-02-06 15:51:00,36.0,17.0,-100.00,West,267,11.0,16.0,46,-99.99,,,-99.99,,2013-02-06 22:51:00,
2013-02-06 16:01:00,36.0,17.0,-100.00,West,261,12.0,15.0,45,-99.99,,,-99.99,,2013-02-06 23:01:00,
2013-02-06 16:11:00,36.0,17.0,-100.00,West,261,12.0,15.0,45,-99.99,,,-99.99,,2013-02-06 23:11:00,
2013-02-06 16:21:00,35.0,19.0,-100.00,West,270,12.0,16.0,50,-99.99,,,-99.99,,2013-02-06 23:21:00,
2013-02-06 16:31:00,35.0,19.0,-100.00,West,262,12.0,17.0,50,-99.99,,,-99.99,,2013-02-06 23:31:00,
2013-02-06 16:41:00,35.0,19.0,-100.00,WSW,256,10.0,14.0,51,-99.99,,,-99.99,,2013-02-06 23:41:00,
2013-02-06 16:52:00,35.0,18.0,-100.00,WSW,257,9.0,11.0,49,-99.99,,,-99.99,,2013-02-06 23:52:00,
2013-02-06 17:01:00,35.0,18.0,-100.00,WSW,252,8.0,11.0,49,-99.99,,,-99.99,,2013-02-07 00:01:00,
2013-02-06 17:11:00,35.0,18.0,-100.00,WSW,252,8.0,11.0,49,-99.99,,,-99.99,,2013-02-07 00:11:00,
2013-02-06 17:21:00,35.0,18.0,-100.00,WSW,255,9.0,12.0,50,-99.99,,,-99.99,,2013-02-07 00:21:00,
2013-02-06 17:31:00,34.0,18.0,-100.00,West,261,6.0,9.0,51,-99.99,,,-99.99,,2013-02-07 00:31:00,
2013-02-06 17:41:00,33.0,18.0,-100.00,WNW,291,5.0,9.0,51,-99.99,,,-99.99,,2013-02-07 00:41:00,
2013-02-06 17:51:00,32.0,18.0,-100.00,West,272,9.0,11.0,54,-99.99,,,-99.99,,2013-02-07 00:51:00,
2013-02-06 18:01:00,32.0,18.0,-100.00,West,272,9.0,11.0,54,-99.99,,,-99.99,,2013-02-07 01:01:00,
2013-02-06 18:10:00,31.0,17.0,-100.00,WNW,294,7.0,13.0,57,-99.99,,,-99.99,,2013-02-07 01:10:00,
2013-02-06 18:11:00,32.0,18.0,-100.00,West,272,9.0,11.0,54,-99.99,,,-99.99,,2013-02-07 01:11:00,
2013-02-06 18:21:00,30.0,18.0,-100.00,WNW,299,4.0,7.0,59,-99.99,,,-99.99,,2013-02-07 01:21:00,
2013-02-06 18:31:00,30.0,18.0,-100.00,NW,307,5.0,10.0,59,-99.99,,,-99.99,,2013-02-07 01:31:00,
2013-02-06 18:41:00,31.0,17.0,-100.00,WNW,294,7.0,13.0,57,-99.99,,,-99.99,,2013-02-07 01:41:00,
2013-02-06 18:52:00,31.0,17.0,-100.00,WNW,294,7.0,13.0,57,-99.99,,,-99.99,,2013-02-07 01:52:00,
2013-02-06 19:01:00,31.0,17.0,-100.00,WNW,294,7.0,13.0,57,-99.99,,,-99.99,,2013-02-07 02:01:00,
2013-02-06 19:31:00,29.0,18.0,-100.00,WNW,284,8.0,11.0,62,-99.99,,,-99.99,,2013-02-07 02:31:00,
2013-02-06 19:41:00,29.0,18.0,-100.00,WNW,284,8.0,11.0,62,-99.99,,,-99.99,,2013-02-07 02:41:00,
2013-02-06 19:51:00,29.0,18.0,-100.00,WNW,284,8.0,11.0,62,-99.99,,,-99.99,,2013-02-07 02:51:00,
2013-02-06 20:01:00,29.0,17.0,-100.00,WNW,299,9.0,11.0,62,-99.99,,,-99.99,,2013-02-07 03:01:00,
2013-02-06 20:11:00,28.0,17.0,-100.00,WNW,288,9.0,12.0,62,-99.99,,,-99.99,,2013-02-07 03:11:00,
2013-02-06 20:21:00,28.0,17.0,-100.00,West,272,8.0,11.0,64,-99.99,,,-99.99,,2013-02-07 03:21:00,
2013-02-06 20:31:00,27.0,17.0,-100.00,West,266,5.0,10.0,67,-99.99,,,-99.99,,2013-02-07 03:31:00,
2013-02-06 20:41:00,26.0,17.0,-100.00,West,264,9.0,10.0,69,-99.99,,,-99.99,,2013-02-07 03:41:00,
2013-02-06 20:51:00,27.0,17.0,-100.00,West,267,8.0,10.0,67,-99.99,,,-99.99,,2013-02-07 03:51:00,
2013-02-06 21:01:00,25.0,17.0,-100.00,West,281,4.0,7.0,70,-99.99,,,-99.99,,2013-02-07 04:01:00,
2013-02-06 21:11:00,25.0,17.0,-100.00,WNW,295,0.0,4.0,70,-99.99,,,-99.99,,2013-02-07 04:11:00,
2013-02-06 21:22:00,24.0,16.0,-100.00,WNW,295,0.0,0.0,72,-99.99,,,-99.99,,2013-02-07 04:22:00,
2013-02-06 21:31:00,24.0,16.0,-100.00,South,173,1.0,5.0,71,-99.99,,,-99.99,,2013-02-07 04:31:00,
2013-02-06 21:41:00,24.0,16.0,-100.00,South,173,1.0,5.0,71,-99.99,,,-99.99,,2013-02-07 04:41:00,
2013-02-06 21:52:00,23.0,16.0,-100.00,WNW,291,3.0,3.0,72,-99.99,,,-99.99,,2013-02-07 04:52:00,
2013-02-06 22:01:00,22.0,14.0,-100.00,West,274,5.0,6.0,72,-99.99,,,-99.99,,2013-02-07 05:01:00,
2013-02-06 22:11:00,22.0,14.0,-100.00,West,274,5.0,6.0,72,-99.99,,,-99.99,,2013-02-07 05:11:00,
2013-02-06 22:21:00,20.0,13.0,-100.00,NNE,14,0.0,3.0,74,-99.99,,,-99.99,,2013-02-07 05:21:00,
2013-02-06 22:32:00,20.0,13.0,-100.00,NNE,21,0.0,1.0,74,-99.99,,,-99.99,,2013-02-07 05:32:00,
2013-02-06 22:42:00,20.0,13.0,-100.00,NNE,21,0.0,1.0,74,-99.99,,,-99.99,,2013-02-07 05:42:00,
2013-02-06 22:52:00,19.0,12.0,-100.00,NNE,13,0.0,2.0,74,-99.99,,,-99.99,,2013-02-07 05:52:00,
2013-02-06 23:01:00,20.0,13.0,-100.00,North,0,0.0,1.0,75,-99.99,,,-99.99,,2013-02-07 06:01:00,
2013-02-06 23:11:00,17.0,11.0,-100.00,ENE,77,0.0,7.0,75,-99.99,,,-99.99,,2013-02-07 06:11:00,
2013-02-06 23:22:00,17.0,11.0,-100.00,ENE,77,0.0,7.0,75,-99.99,,,-99.99,,2013-02-07 06:22:00,
2013-02-06 23:31:00,17.0,11.0,-100.00,ENE,67,2.0,4.0,75,-99.99,,,-99.99,,2013-02-07 06:31:00,
2013-02-06 23:43:00,16.0,10.0,-100.00,ENE,62,2.0,2.0,76,-99.99,,,-99.99,,2013-02-07 06:43:00,
2013-02-06 23:52:00,16.0,10.0,-100.00,ENE,62,2.0,2.0,76,-99.99,,,-99.99,,2013-02-07 06:52:00,